Time;durP1;ratioP1;P1;durP2;ratioP2;P2;SDS_P1;SDS_P2;PMS_P1;PMS_P2;Temp;Humidity;BMP_temperature;BMP_pressure;BME280_temperature;BME280_humidity;BME280_pressure;Samples;Min_cycle;Max_cycle;Signal;HPM_P1;HPM_P2
2023/05/04 00:02:20;;;;;;;21.77;11.35;;;;;;;1.36;55.73;100740.70;1685917;84;21057;-64
2023/05/04 00:04:47;;;;;;;20.35;11.05;;;;;;;1.38;55.70;100737.73;1691906;82;21085;-63
2023/05/04 00:07:13;;;;;;;26.27;13.15;;;;;;;1.40;55.78;100746.33;1679536;84;21028;-63
2023/05/04 00:09:39;;;;;;;29.90;12.98;;;;;;;1.45;55.96;100744.62;1696123;83;21190;-63
2023/05/04 00:12:06;;;;;;;22.82;11.70;;;;;;;1.50;55.95;100740.36;1700461;83;20963;-63
2023/05/04 00:14:33;;;;;;;16.80;11.18;;;;;;;1.53;55.96;100740.38;1698688;83;21513;-64
2023/05/04 00:17:00;;;;;;;17.97;10.23;;;;;;;1.53;55.94;100742.95;1698211;83;21380;-64
2023/05/04 00:19:27;;;;;;;17.27;10.63;;;;;;;1.51;56.02;100734.38;1698905;82;21002;-64
2023/05/04 00:21:53;;;;;;;21.27;10.55;;;;;;;1.48;55.94;100734.34;1704659;83;20927;-64
2023/05/04 00:24:20;;;;;;;21.90;11.48;;;;;;;1.43;55.89;100741.20;1699299;83;21538;-64
2023/05/04 00:26:46;;;;;;;22.50;10.82;;;;;;;1.32;56.04;100735.13;1700922;82;21014;-64
2023/05/04 00:29:12;;;;;;;22.67;10.45;;;;;;;1.31;56.04;100736.80;1699740;83;21077;-65
2023/05/04 00:31:38;;;;;;;22.52;10.50;;;;;;;1.27;55.97;100735.51;1706736;83;21034;-64
2023/05/04 00:34:05;;;;;;;18.55;10.32;;;;;;;1.23;56.14;100740.18;1701130;83;21067;-63
2023/05/04 00:36:31;;;;;;;22.90;9.98;;;;;;;1.21;56.13;100738.05;1697155;83;21585;-63
2023/05/04 00:38:57;;;;;;;19.15;10.65;;;;;;;1.17;56.11;100738.42;1696235;83;21481;-63
2023/05/04 00:41:24;;;;;;;18.15;10.75;;;;;;;1.14;56.23;100734.98;1700318;83;21157;-63
2023/05/04 00:43:50;;;;;;;17.85;10.45;;;;;;;1.07;56.49;100728.51;1698446;83;21010;-63
2023/05/04 00:46:17;;;;;;;18.23;9.78;;;;;;;1.05;56.65;100733.20;1696215;83;21081;-64
2023/05/04 00:48:47;;;;;;;19.02;11.40;;;;;;;1.04;56.76;100731.06;1699883;82;21114;-64
2023/05/04 00:51:15;;;;;;;18.15;9.88;;;;;;;1.05;56.98;100728.91;1699174;83;21180;-63
2023/05/04 00:53:42;;;;;;;22.98;9.98;;;;;;;1.07;57.04;100725.94;1691434;83;21012;-63
2023/05/04 00:56:08;;;;;;;20.02;10.72;;;;;;;1.05;56.98;100731.48;1690855;83;21047;-63
2023/05/04 00:58:35;;;;;;;14.43;9.53;;;;;;;1.02;57.06;100718.61;1694438;83;21045;-64
2023/05/04 01:01:02;;;;;;;15.08;9.75;;;;;;;0.97;57.06;100725.42;1693856;83;21007;-65
2023/05/04 01:03:30;;;;;;;20.23;11.18;;;;;;;0.89;56.95;100718.92;1687874;83;20975;-63
2023/05/04 01:06:19;;;;;;;17.48;9.85;;;;;;;0.82;57.05;100725.30;1692211;83;21463;-63
2023/05/04 01:08:49;;;;;;;21.30;10.43;;;;;;;0.76;57.11;100723.55;1691180;83;21003;-63
2023/05/04 01:11:19;;;;;;;22.10;11.48;;;;;;;0.74;57.56;100720.52;1688359;83;20960;-63
2023/05/04 01:13:47;;;;;;;26.93;10.25;;;;;;;0.74;57.74;100724.38;1692776;83;20995;-63
2023/05/04 01:16:14;;;;;;;16.70;9.90;;;;;;;0.72;57.74;100720.92;1689151;83;21045;-63
2023/05/04 01:18:40;;;;;;;15.78;9.55;;;;;;;0.68;57.59;100717.91;1692523;83;21094;-64
2023/05/04 01:21:08;;;;;;;18.17;9.35;;;;;;;0.62;57.65;100715.70;1690914;82;21042;-63
2023/05/04 01:23:35;;;;;;;15.72;7.78;;;;;;;0.57;57.62;100716.09;1691091;83;21526;-64
2023/05/04 01:26:16;;;;;;;16.35;9.30;;;;;;;0.53;57.63;100718.17;1691767;83;20971;-63
2023/05/04 01:28:53;;;;;;;14.45;8.75;;;;;;;0.50;57.65;100709.58;1691696;83;21109;-63
2023/05/04 01:31:22;;;;;;;18.15;9.38;;;;;;;0.45;57.82;100709.55;1685775;82;20963;-63
2023/05/04 01:33:51;;;;;;;17.45;8.90;;;;;;;0.45;57.93;100709.55;1691726;82;21068;-63
2023/05/04 01:36:22;;;;;;;20.60;9.35;;;;;;;0.40;57.96;100708.64;1689168;83;20982;-63
2023/05/04 01:38:49;;;;;;;16.15;8.18;;;;;;;0.35;57.97;100709.87;1687538;83;20955;-63
2023/05/04 01:41:15;;;;;;;13.80;7.92;;;;;;;0.27;58.07;100706.79;1691431;83;20963;-63
2023/05/04 01:43:41;;;;;;;10.25;6.30;;;;;;;0.20;58.56;100699.02;1695547;82;21450;-63
2023/05/04 01:46:07;;;;;;;12.63;7.10;;;;;;;0.18;58.80;100701.13;1688760;83;21046;-64
2023/05/04 01:48:34;;;;;;;14.50;7.03;;;;;;;0.17;58.66;100699.00;1694973;82;21046;-63
2023/05/04 01:51:00;;;;;;;13.90;7.35;;;;;;;0.13;58.61;100694.66;1692399;82;21090;-63
2023/05/04 01:53:26;;;;;;;17.55;7.37;;;;;;;0.12;58.79;100695.51;1694918;83;21059;-63
2023/05/04 01:55:52;;;;;;;13.72;7.75;;;;;;;0.12;58.83;100698.08;1690112;83;21826;-63
2023/05/04 01:58:19;;;;;;;20.02;8.28;;;;;;;0.15;58.85;100700.67;1696700;82;22297;-63
2023/05/04 02:00:45;;;;;;;17.70;8.75;;;;;;;0.18;58.96;100701.98;1689424;83;20963;-63
2023/05/04 02:03:11;;;;;;;20.53;8.10;;;;;;;0.24;59.02;100704.19;1697076;83;20967;-63
2023/05/04 02:05:38;;;;;;;15.45;7.20;;;;;;;0.30;59.20;100702.53;1694207;83;20912;-63
2023/05/04 02:08:05;;;;;;;12.37;7.75;;;;;;;0.34;59.12;100706.02;1691734;83;21857;-63
2023/05/04 02:10:31;;;;;;;16.82;8.33;;;;;;;0.39;59.35;100705.22;1692226;82;21066;-63
2023/05/04 02:12:59;;;;;;;17.90;7.90;;;;;;;0.47;59.45;100702.70;1689735;83;21482;-63
2023/05/04 02:15:24;;;;;;;;;;;;;;;0.53;59.45;100700.18;1690830;83;21494;-63
2023/05/04 02:17:51;;;;;;;16.95;6.65;;;;;;;0.60;59.68;100704.55;1694730;82;20112;-63
2023/05/04 02:20:17;;;;;;;15.40;6.30;;;;;;;0.65;59.44;100702.88;1691128;82;21085;-63
2023/05/04 02:22:43;;;;;;;13.65;6.05;;;;;;;0.71;59.30;100705.08;1688525;82;21002;-63
2023/05/04 02:25:10;;;;;;;10.80;5.85;;;;;;;0.68;59.23;100708.91;1688801;83;21591;-63
2023/05/04 02:27:37;;;;;;;15.32;6.87;;;;;;;0.56;59.20;100707.95;1690225;83;20940;-63
2023/05/04 02:30:04;;;;;;;16.12;8.40;;;;;;;0.45;59.17;100704.42;1688548;83;21101;-63
2023/05/04 02:32:30;;;;;;;15.50;7.47;;;;;;;0.36;59.33;100704.30;1694057;82;21018;-63
2023/05/04 02:35:01;;;;;;;11.10;6.55;;;;;;;0.28;59.30;100705.93;1687930;83;20959;-65
2023/05/04 02:37:25;;;;;;;13.75;7.55;;;;;;;0.21;59.60;100703.30;1694045;82;21598;-63
2023/05/04 02:39:51;;;;;;;12.95;5.72;;;;;;;0.15;59.56;100700.67;1691069;83;21077;-63
2023/05/04 02:42:17;;;;;;;15.00;6.80;;;;;;;0.09;59.63;100695.48;1687745;83;21015;-63
2023/05/04 02:44:44;;;;;;;13.78;5.62;;;;;;;0.05;59.67;100696.27;1691352;82;20983;-63
2023/05/04 02:47:10;;;;;;;15.35;7.33;;;;;;;0.08;59.84;100700.16;1690705;83;20999;-64
2023/05/04 02:49:36;;;;;;;14.90;5.67;;;;;;;0.09;59.97;100692.91;1689961;83;20936;-63
2023/05/04 02:52:02;;;;;;;13.43;6.42;;;;;;;0.11;59.93;100692.91;1689003;83;21046;-63
2023/05/04 02:54:29;;;;;;;15.35;8.45;;;;;;;0.06;59.91;100694.17;1688367;83;20978;-64
2023/05/04 02:56:55;;;;;;;13.03;6.25;;;;;;;0.03;60.01;100699.27;1692395;83;20955;-63
2023/05/04 02:59:21;;;;;;;14.33;7.42;;;;;;;0.05;60.20;100692.84;1687834;83;21137;-63
2023/05/04 03:01:47;;;;;;;15.40;6.72;;;;;;;0.09;60.56;100687.78;1690337;83;20967;-63
2023/05/04 03:04:14;;;;;;;14.23;6.50;;;;;;;0.13;60.79;100681.81;1688308;83;21732;-65
2023/05/04 03:06:40;;;;;;;11.97;5.90;;;;;;;0.25;60.71;100690.48;1691547;82;21022;-65
2023/05/04 03:09:07;;;;;;;12.90;5.37;;;;;;;0.31;60.61;100687.98;1692736;82;21019;-64
2023/05/04 03:11:34;;;;;;;12.00;4.80;;;;;;;0.36;60.67;100686.32;1692114;82;21014;-63
2023/05/04 03:14:00;;;;;;;8.15;4.75;;;;;;;0.37;60.57;100686.34;1690369;83;21069;-63
2023/05/04 03:16:27;;;;;;;9.45;4.85;;;;;;;0.37;60.56;100688.06;1687643;83;21082;-64
2023/05/04 03:18:53;;;;;;;12.60;5.40;;;;;;;0.41;60.65;100687.23;1691705;82;21058;-63
2023/05/04 03:21:21;;;;;;;10.00;5.40;;;;;;;0.42;60.56;100694.08;1685614;83;21046;-63
2023/05/04 03:23:47;;;;;;;9.05;5.25;;;;;;;0.43;60.94;100688.11;1689453;83;20964;-63
2023/05/04 03:26:13;;;;;;;14.90;5.92;;;;;;;0.44;61.04;100682.12;1687052;83;21667;-63
2023/05/04 03:28:40;;;;;;;13.95;5.65;;;;;;;0.42;60.75;100681.23;1687706;82;21102;-63
2023/05/04 03:31:06;;;;;;;14.35;6.17;;;;;;;0.47;60.90;100679.57;1691542;83;21015;-63
2023/05/04 03:33:32;;;;;;;14.80;5.80;;;;;;;0.50;60.81;100682.17;1693507;83;21032;-63
2023/05/04 03:36:01;;;;;;;13.13;5.65;;;;;;;0.49;60.81;100680.45;1686040;83;21589;-63
2023/05/04 03:38:28;;;;;;;10.88;4.85;;;;;;;0.53;61.08;100674.48;1692870;82;21023;-63
2023/05/04 03:40:55;;;;;;;26.48;5.95;;;;;;;0.54;61.02;100683.94;1686977;82;21006;-63
2023/05/04 03:43:21;;;;;;;;;;;;;;;0.60;61.15;100683.12;1694614;83;21077;-63
2023/05/04 03:45:47;;;;;;;22.65;9.10;;;;;;;0.66;61.37;100676.32;1648132;85;20536;-63
2023/05/04 03:48:14;;;;;;;15.68;5.67;;;;;;;0.76;61.27;100682.84;1692036;82;21046;-63
2023/05/04 03:50:40;;;;;;;27.93;8.48;;;;;;;0.87;61.30;100685.08;1693941;83;21062;-63
2023/05/04 03:53:06;;;;;;;23.47;6.92;;;;;;;1.00;61.39;100679.14;1690340;83;21069;-63
2023/05/04 03:55:32;;;;;;;17.52;7.30;;;;;;;1.10;61.16;100686.09;1691552;82;21369;-63
2023/05/04 03:57:58;;;;;;;16.30;6.10;;;;;;;1.22;61.23;100684.44;1692112;83;22241;-63
2023/05/04 04:00:25;;;;;;;15.43;6.92;;;;;;;1.31;61.25;100676.77;1689641;82;21580;-63
2023/05/04 04:02:51;;;;;;;13.62;6.30;;;;;;;1.42;61.28;100677.69;1687640;83;21035;-63
2023/05/04 04:05:17;;;;;;;11.03;6.00;;;;;;;1.47;61.31;100683.73;1696857;82;21066;-63
2023/05/04 04:07:43;;;;;;;12.45;6.33;;;;;;;1.53;61.45;100688.91;1695405;82;21086;-65
2023/05/04 04:10:10;;;;;;;14.58;5.90;;;;;;;1.54;61.40;100689.36;1691204;83;20960;-64
2023/05/04 04:12:37;;;;;;;18.77;7.22;;;;;;;1.60;61.64;100689.81;1701512;83;21082;-63
2023/05/04 04:15:04;;;;;;;19.62;10.05;;;;;;;1.67;61.54;100690.69;1695217;83;21073;-63
2023/05/04 04:17:31;;;;;;;22.62;8.55;;;;;;;1.75;61.66;100695.45;1696872;82;21065;-66
2023/05/04 04:19:57;;;;;;;16.50;5.80;;;;;;;1.87;61.82;100696.77;1692272;82;21033;-63
2023/05/04 04:22:23;;;;;;;11.78;5.17;;;;;;;2.00;62.02;100693.83;1695165;82;20975;-63
2023/05/04 04:24:55;;;;;;;15.32;5.85;;;;;;;2.12;61.85;100702.02;1700879;82;21632;-63
2023/05/04 04:27:21;;;;;;;27.15;7.33;;;;;;;2.32;61.97;100695.19;1699415;82;21015;-63
2023/05/04 04:29:48;;;;;;;18.12;7.05;;;;;;;2.54;61.87;100693.50;1694851;83;21022;-64
2023/05/04 04:32:14;;;;;;;13.50;6.65;;;;;;;2.71;61.94;100699.96;1697276;82;21106;-63
2023/05/04 04:34:40;;;;;;;19.20;8.23;;;;;;;2.88;62.12;100698.23;1695248;83;21002;-63
2023/05/04 04:37:07;;;;;;;13.35;6.90;;;;;;;3.06;62.27;100692.66;1694876;83;21490;-64
2023/05/04 04:39:33;;;;;;;20.70;7.97;;;;;;;3.27;62.24;100692.61;1694528;82;21664;-63
2023/05/04 04:42:00;;;;;;;24.70;8.33;;;;;;;3.45;62.26;100693.45;1695568;82;21038;-63
2023/05/04 04:44:26;;;;;;;19.80;6.60;;;;;;;3.62;62.24;100692.11;1698391;82;21141;-62
2023/05/04 04:46:53;;;;;;;17.50;6.78;;;;;;;3.79;62.25;100693.76;1696954;82;21089;-62
2023/05/04 04:49:19;;;;;;;13.85;6.92;;;;;;;3.98;62.37;100692.40;1695488;83;21035;-63
2023/05/04 04:51:47;;;;;;;26.23;7.00;;;;;;;4.18;62.31;100694.44;1698828;83;21007;-63
2023/05/04 04:54:14;;;;;;;14.30;6.80;;;;;;;4.37;62.41;100694.31;1694258;82;21010;-62
2023/05/04 04:56:43;;;;;;;14.50;7.83;;;;;;;4.57;62.42;100695.50;1687767;83;21037;-63
2023/05/04 04:59:10;;;;;;;23.85;7.25;;;;;;;4.71;62.35;100691.08;1664811;85;21143;-62
2023/05/04 05:01:36;;;;;;;38.23;9.18;;;;;;;4.85;62.36;100697.44;1668025;84;21068;-62
2023/05/04 05:04:04;;;;;;;27.27;7.17;;;;;;;4.95;62.24;100697.77;1668037;85;21047;-62
2023/05/04 05:06:32;;;;;;;10.75;5.20;;;;;;;5.11;62.53;100694.17;1671077;83;21125;-62
2023/05/04 05:08:59;;;;;;;18.42;5.00;;;;;;;5.31;62.67;100695.70;1670624;84;21155;-62
2023/05/04 05:11:25;;;;;;;10.40;3.87;;;;;;;5.54;62.65;100688.54;1663497;84;21119;-62
2023/05/04 05:13:52;;;;;;;10.35;3.25;;;;;;;5.76;62.55;100693.48;1662966;85;20978;-62
2023/05/04 05:16:21;;;;;;;11.50;3.47;;;;;;;6.00;62.47;100685.44;1667263;83;21075;-63
2023/05/04 05:18:47;;;;;;;9.70;3.40;;;;;;;6.22;62.42;100685.16;1667525;85;21653;-63
2023/05/04 05:21:14;;;;;;;13.83;3.83;;;;;;;6.45;62.41;100680.48;1633649;86;21060;-63
2023/05/04 05:23:40;;;;;;;34.10;3.75;;;;;;;6.64;62.36;100679.77;1674326;83;21012;-62
2023/05/04 05:26:06;;;;;;;5.30;2.45;;;;;;;6.84;62.37;100679.44;1665637;83;21103;-63
2023/05/04 05:28:33;;;;;;;9.68;2.72;;;;;;;7.06;62.43;100676.48;1635798;85;20997;-62
2023/05/04 05:30:59;;;;;;;6.90;2.72;;;;;;;7.30;62.42;100679.91;1670548;83;21028;-63
2023/05/04 05:33:25;;;;;;;12.23;2.75;;;;;;;7.50;62.35;100673.48;1663036;85;21063;-63
2023/05/04 05:35:52;;;;;;;8.58;2.20;;;;;;;7.72;62.35;100677.37;1634315;86;21056;-63
2023/05/04 05:38:18;;;;;;;8.93;2.40;;;;;;;7.90;62.13;100667.05;1664789;83;21118;-63
2023/05/04 05:40:45;;;;;;;7.00;2.40;;;;;;;8.07;62.05;100664.09;1665857;83;21055;-63
2023/05/04 05:43:11;;;;;;;46.50;3.62;;;;;;;8.27;62.09;100665.80;1633239;85;21107;-63
2023/05/04 05:45:38;;;;;;;10.82;2.17;;;;;;;8.51;61.99;100666.14;1665025;85;21747;-63
2023/05/04 05:48:05;;;;;;;7.65;2.08;;;;;;;8.72;61.81;100663.03;1668133;85;21052;-63
2023/05/04 05:50:33;;;;;;;7.85;2.62;;;;;;;8.96;61.91;100663.30;1663908;85;21599;-63
2023/05/04 05:52:59;;;;;;;9.23;2.25;;;;;;;9.21;61.67;100665.27;1668873;83;21127;-64
2023/05/04 05:55:25;;;;;;;5.20;2.10;;;;;;;9.46;61.84;100666.31;1665479;84;21008;-63
2023/05/04 05:57:52;;;;;;;7.67;2.12;;;;;;;9.74;61.64;100665.53;1666383;85;21040;-63
2023/05/04 06:00:20;;;;;;;9.53;3.17;;;;;;;9.97;61.45;100668.34;1665156;85;21115;-63
2023/05/04 06:02:47;;;;;;;7.92;2.00;;;;;;;10.24;61.25;100663.18;1664604;83;21004;-65
2023/05/04 06:05:17;;;;;;;8.25;2.20;;;;;;;10.47;60.94;100663.37;1622352;86;21042;-63
2023/05/04 06:07:41;;;;;;;9.75;2.10;;;;;;;10.68;60.80;100671.41;1653049;84;21076;-64
2023/05/04 06:10:09;;;;;;;8.68;2.65;;;;;;;10.77;60.28;100665.02;1653277;85;21076;-64
2023/05/04 06:12:36;;;;;;;6.00;1.95;;;;;;;10.77;60.31;100672.40;1652933;84;21041;-63
2023/05/04 06:15:03;;;;;;;6.37;2.17;;;;;;;10.85;60.30;100669.09;1693737;83;21435;-64
2023/05/04 06:17:30;;;;;;;6.05;2.67;;;;;;;10.89;59.86;100673.28;1692024;83;20971;-63
2023/05/04 06:19:56;;;;;;;9.78;3.15;;;;;;;10.87;59.98;100669.89;1696969;83;21598;-64
2023/05/04 06:22:23;;;;;;;4.83;1.60;;;;;;;10.91;59.97;100666.27;1698892;83;20964;-63
2023/05/04 06:24:50;;;;;;;7.92;2.20;;;;;;;11.00;59.94;100668.16;1697264;83;21010;-63
2023/05/04 06:27:16;;;;;;;5.55;1.67;;;;;;;11.16;59.96;100668.05;1700376;82;20986;-63
2023/05/04 06:29:46;;;;;;;8.53;2.40;;;;;;;11.36;59.80;100665.58;1691288;82;21537;-63
2023/05/04 06:32:14;;;;;;;6.12;1.77;;;;;;;11.56;59.70;100661.40;1695804;82;20982;-63
2023/05/04 06:34:40;;;;;;;5.75;2.22;;;;;;;11.85;59.46;100650.75;1695905;82;21371;-63
2023/05/04 06:37:06;;;;;;;5.15;2.00;;;;;;;12.12;59.09;100663.69;1657003;85;21107;-63
2023/05/04 06:39:33;;;;;;;3.87;1.82;;;;;;;12.34;59.19;100661.55;1627225;87;21565;-63
2023/05/04 06:42:01;;;;;;;6.87;2.23;;;;;;;12.57;58.69;100661.47;1697267;82;21090;-63
2023/05/04 06:44:33;;;;;;;5.78;1.95;;;;;;;12.64;57.88;100662.94;1693672;82;21002;-63
2023/05/04 06:47:00;;;;;;;5.62;2.12;;;;;;;12.78;58.43;100657.59;1696560;82;21020;-63
2023/05/04 06:49:31;;;;;;;6.85;1.98;;;;;;;13.10;58.29;100661.00;1696053;83;21042;-64
2023/05/04 06:52:00;;;;;;;5.17;1.90;;;;;;;13.50;58.38;100657.13;1690609;83;21455;-63
2023/05/04 06:54:45;;;;;;;7.03;2.17;;;;;;;13.82;58.24;100657.01;1694790;82;21580;-64
2023/05/04 06:56:57;;;;;;;5.17;2.10;;;;;;;14.32;57.88;100651.16;1683052;83;21014;-64
2023/05/04 06:59:24;;;;;;;6.15;1.98;;;;;;;14.93;58.26;100652.12;1695020;82;21339;-64
2023/05/04 07:01:53;;;;;;;6.22;1.95;;;;;;;15.66;57.39;100647.91;1691901;83;21604;-63
2023/05/04 07:04:22;;;;;;;11.85;2.30;;;;;;;16.00;56.47;100650.05;1671398;83;21179;-64
2023/05/04 07:06:51;;;;;;;7.45;1.98;;;;;;;16.45;56.19;100643.14;1690481;83;21081;-64
2023/05/04 07:09:22;;;;;;;5.62;1.95;;;;;;;16.93;55.77;100643.89;1691520;83;21070;-65
2023/05/04 07:11:55;;;;;;;3.80;1.82;;;;;;;17.68;56.13;100642.83;1690189;83;21111;-64
2023/05/04 07:14:21;;;;;;;5.22;1.77;;;;;;;18.70;55.95;100633.69;1690828;82;21007;-64
2023/05/04 07:16:49;;;;;;;4.92;1.70;;;;;;;19.56;54.66;100630.50;1694087;82;20975;-63
2023/05/04 07:19:17;;;;;;;5.45;1.75;;;;;;;20.47;54.99;100630.12;1689757;83;21563;-64
2023/05/04 07:21:46;;;;;;;5.45;1.82;;;;;;;21.48;54.32;100619.78;1694084;82;21077;-63
2023/05/04 07:24:19;;;;;;;7.05;2.02;;;;;;;22.70;54.02;100613.48;1671502;83;21156;-62
2023/05/04 07:26:42;;;;;;;5.80;1.92;;;;;;;23.61;53.30;100614.55;1696635;83;21152;-63
2023/05/04 07:29:18;;;;;;;4.62;1.80;;;;;;;24.94;53.02;100609.67;1694111;82;21074;-63
2023/05/04 07:31:41;;;;;;;6.37;2.27;;;;;;;26.00;51.49;100608.45;1694839;83;21498;-62
2023/05/04 07:34:09;;;;;;;6.40;2.15;;;;;;;26.85;50.88;100602.19;1700312;83;21050;-63
2023/05/04 07:36:35;;;;;;;7.83;2.08;;;;;;;27.51;49.97;100612.00;1693602;82;21024;-64
2023/05/04 07:39:04;;;;;;;5.28;2.35;;;;;;;28.08;48.86;100605.50;1697274;82;21079;-62
2023/05/04 07:41:31;;;;;;;7.05;2.27;;;;;;;28.65;47.71;100603.38;1694528;83;21045;-63
2023/05/04 07:43:58;;;;;;;9.50;2.35;;;;;;;29.07;47.52;100606.39;1690795;82;20991;-63
2023/05/04 07:46:24;;;;;;;;;;;;;;;29.60;46.06;100607.05;1700317;83;21038;-63
2023/05/04 07:48:50;;;;;;;5.58;2.20;;;;;;;29.89;42.76;100605.61;1693888;83;20164;-70
2023/05/04 07:51:18;;;;;;;6.35;2.27;;;;;;;30.40;44.74;100606.48;1691570;82;21097;-63
2023/05/04 07:53:45;;;;;;;6.50;1.80;;;;;;;31.46;43.98;100610.05;1696305;83;21046;-63
2023/05/04 07:56:12;;;;;;;;;;;;;;;32.20;41.67;100602.63;1701426;82;21467;-63
2023/05/04 07:58:43;;;;;;;5.28;2.10;;;;;;;32.81;38.84;100604.02;1691370;82;20112;-64
2023/05/04 08:01:13;;;;;;;7.30;2.20;;;;;;;33.23;40.11;100598.19;1696412;83;21011;-66
2023/05/04 08:03:41;;;;;;;6.25;2.02;;;;;;;33.68;38.92;100599.47;1688058;83;21058;-63
2023/05/04 08:06:08;;;;;;;6.67;1.80;;;;;;;34.36;37.77;100594.02;1693386;83;21529;-64
2023/05/04 08:08:34;;;;;;;10.40;2.17;;;;;;;34.89;37.29;100599.45;1696495;83;21022;-64
2023/05/04 08:11:00;;;;;;;4.85;1.80;;;;;;;34.88;36.14;100599.68;1696718;82;21498;-63
2023/05/04 08:13:27;;;;;;;5.25;2.10;;;;;;;35.27;35.20;100601.50;1686150;82;21014;-63
2023/05/04 08:15:56;;;;;;;5.30;2.02;;;;;;;35.00;32.65;100594.44;1687108;83;21042;-64
2023/05/04 08:18:22;;;;;;;4.80;1.90;;;;;;;35.33;33.03;100597.09;1696776;82;21447;-64
2023/05/04 08:20:48;;;;;;;5.87;1.82;;;;;;;36.26;32.56;100594.77;1693343;82;21038;-71
2023/05/04 08:23:14;;;;;;;5.25;2.17;;;;;;;36.55;31.40;100591.11;1694477;82;21038;-62
2023/05/04 08:25:43;;;;;;;4.20;1.62;;;;;;;36.26;30.09;100586.61;1692747;82;21089;-64
2023/05/04 08:28:09;;;;;;;6.03;2.00;;;;;;;36.43;29.64;100591.52;1689056;83;21014;-63
2023/05/04 08:30:39;;;;;;;7.42;2.20;;;;;;;36.32;28.40;100584.07;1690316;83;21160;-64
2023/05/04 08:33:07;;;;;;;5.90;2.12;;;;;;;35.97;27.83;100589.94;1688143;82;21046;-67
2023/05/04 08:35:33;;;;;;;5.72;1.87;;;;;;;35.80;27.22;100589.62;1693605;82;20979;-63
2023/05/04 08:38:00;;;;;;;3.52;1.70;;;;;;;35.80;27.13;100585.02;1694597;83;20971;-64
2023/05/04 08:40:26;;;;;;;4.50;1.82;;;;;;;36.62;26.55;100587.83;1692846;83;21125;-63
2023/05/04 08:42:53;;;;;;;3.87;1.62;;;;;;;37.19;25.72;100588.52;1694481;82;21608;-67
2023/05/04 08:45:20;;;;;;;6.33;2.08;;;;;;;37.45;25.09;100586.56;1697787;82;21549;-63
2023/05/04 08:47:47;;;;;;;4.42;1.55;;;;;;;37.11;23.77;100585.27;1692898;83;21542;-63
2023/05/04 08:50:13;;;;;;;9.83;2.00;;;;;;;36.98;23.92;100590.84;1688910;83;21499;-63
2023/05/04 08:52:47;;;;;;;4.17;1.82;;;;;;;37.23;23.71;100580.74;1689805;82;20998;-64
2023/05/04 08:55:15;;;;;;;5.08;1.80;;;;;;;37.50;23.43;100585.88;1688990;83;20948;-64
2023/05/04 08:57:43;;;;;;;5.95;2.00;;;;;;;37.33;22.88;100580.20;1693527;82;21026;-64
2023/05/04 09:00:12;;;;;;;5.10;1.90;;;;;;;37.65;21.59;100578.69;1688999;83;21521;-63
2023/05/04 09:02:39;;;;;;;5.53;1.87;;;;;;;37.50;21.57;100578.54;1686906;83;21050;-63
2023/05/04 09:05:06;;;;;;;7.05;2.20;;;;;;;37.57;21.55;100576.57;1621799;86;21105;-63
2023/05/04 09:07:33;;;;;;;4.87;1.92;;;;;;;38.18;21.49;100575.22;1622336;86;21053;-63
2023/05/04 09:10:00;;;;;;;3.10;1.47;;;;;;;37.73;20.99;100579.70;1622379;86;21143;-63
2023/05/04 09:12:27;;;;;;;5.33;1.77;;;;;;;38.48;20.46;100573.78;1694281;83;21058;-63
2023/05/04 09:14:53;;;;;;;2.95;1.12;;;;;;;37.64;19.63;100584.64;1699446;82;21544;-63
2023/05/04 09:17:24;;;;;;;2.55;1.07;;;;;;;36.59;19.64;100582.83;1702317;83;20994;-63
2023/05/04 09:19:58;;;;;;;2.77;1.00;;;;;;;37.28;19.26;100577.32;1703314;82;21046;-64
2023/05/04 09:22:24;;;;;;;;;;;;;;;36.46;19.05;100582.38;1702484;83;21009;-63
2023/05/04 09:24:50;;;;;;;8.20;1.90;;;;;;;37.67;17.85;100573.82;1700737;83;20196;-63
2023/05/04 09:27:16;;;;;;;4.15;1.20;;;;;;;37.95;18.36;100570.01;1699952;83;20974;-63
2023/05/04 09:29:49;;;;;;;5.15;1.25;;;;;;;38.22;18.28;100568.22;1706396;83;21104;-63
2023/05/04 09:32:13;;;;;;;4.45;1.47;;;;;;;38.43;17.59;100577.24;1693048;83;21113;-64
2023/05/04 09:34:56;;;;;;;4.65;1.50;;;;;;;37.38;17.54;100572.17;1689437;84;21567;-64
2023/05/04 09:37:21;;;;;;;4.17;1.40;;;;;;;37.91;17.56;100579.67;1677446;84;21034;-64
2023/05/04 09:39:58;;;;;;;4.45;1.77;;;;;;;39.19;17.12;100564.23;1686494;83;21569;-64
2023/05/04 09:42:25;;;;;;;8.60;1.60;;;;;;;40.02;17.07;100566.95;1694838;83;21049;-63
2023/05/04 09:45:03;;;;;;;4.78;1.87;;;;;;;40.47;16.66;100568.81;1699700;83;21117;-64
2023/05/04 09:47:38;;;;;;;10.15;1.85;;;;;;;40.95;16.53;100561.89;1704852;83;21014;-64
2023/05/04 09:50:13;;;;;;;3.05;1.50;;;;;;;41.72;16.42;100561.47;1699283;83;21021;-64
2023/05/04 09:52:40;;;;;;;3.95;1.55;;;;;;;42.46;16.14;100560.25;1699434;82;21043;-64
2023/05/04 09:55:13;;;;;;;5.20;1.80;;;;;;;43.09;15.86;100559.52;1694859;83;21042;-64
2023/05/04 09:57:41;;;;;;;4.15;1.60;;;;;;;43.42;15.12;100562.97;1702218;83;21002;-65
2023/05/04 10:00:11;;;;;;;9.83;2.72;;;;;;;42.98;14.97;100548.20;1704061;83;21545;-64
2023/05/04 10:02:39;;;;;;;6.37;1.70;;;;;;;42.09;15.03;100562.11;1698554;83;21144;-65
2023/05/04 10:05:08;;;;;;;6.58;1.60;;;;;;;42.71;14.68;100550.50;1694273;83;22046;-65
2023/05/04 10:07:39;;;;;;;4.70;1.40;;;;;;;43.10;14.27;100544.67;1689198;83;21647;-65
2023/05/04 10:10:09;;;;;;;6.20;1.40;;;;;;;43.63;14.36;100539.92;1692744;83;21060;-64
2023/05/04 10:12:35;;;;;;;2.52;0.98;;;;;;;44.92;14.08;100544.83;1684525;83;21000;-67
2023/05/04 10:15:07;;;;;;;7.33;1.40;;;;;;;45.35;13.64;100539.14;1681619;83;21051;-65
2023/05/04 10:17:50;;;;;;;5.47;1.30;;;;;;;45.77;13.30;100539.16;1680810;83;21030;-70
2023/05/04 10:20:31;;;;;;;2.47;1.22;;;;;;;45.21;13.14;100532.58;1687424;83;20978;-62
2023/05/04 10:23:14;;;;;;;3.62;1.12;;;;;;;45.80;13.09;100537.21;1689333;83;20980;-62
2023/05/04 10:25:49;;;;;;;3.17;1.77;;;;;;;45.99;12.46;100534.05;1665840;84;20971;-73
2023/05/04 10:28:31;;;;;;;3.77;1.42;;;;;;;45.40;12.11;100536.33;1648343;85;21067;-62
2023/05/04 10:30:59;;;;;;;10.35;1.87;;;;;;;45.49;12.05;100533.26;1638730;85;21147;-63
2023/05/04 10:33:45;;;;;;;3.80;1.70;;;;;;;45.58;11.93;100521.66;1643535;85;21016;-63
2023/05/04 10:36:12;;;;;;;5.80;1.37;;;;;;;45.23;11.60;100533.13;1636562;86;21090;-63
2023/05/04 10:38:40;;;;;;;2.33;1.20;;;;;;;45.63;11.40;100536.77;1639440;85;21135;-62
2023/05/04 10:41:16;;;;;;;3.87;1.40;;;;;;;44.98;11.24;100536.24;1646831;85;21107;-65
2023/05/04 10:43:52;;;;;;;2.15;1.20;;;;;;;44.09;11.07;100531.74;1642308;85;21068;-62
2023/05/04 10:46:18;;;;;;;3.70;1.40;;;;;;;44.18;11.20;100523.20;1644252;85;21043;-63
2023/05/04 10:48:45;;;;;;;3.17;1.30;;;;;;;45.04;10.98;100517.23;1646364;85;21071;-67
2023/05/04 10:51:20;;;;;;;3.85;1.65;;;;;;;45.01;10.61;100512.28;1627919;85;21012;-62
2023/05/04 10:53:46;;;;;;;5.45;1.65;;;;;;;44.82;10.78;100514.02;1628482;86;20956;-63
2023/05/04 10:56:22;;;;;;;6.83;1.60;;;;;;;45.13;10.52;100511.13;1635297;85;20981;-63
2023/05/04 10:58:49;;;;;;;14.80;2.37;;;;;;;44.80;10.49;100507.96;1639089;85;21119;-63
2023/05/04 11:01:16;;;;;;;12.70;1.87;;;;;;;44.62;10.26;100499.19;1639086;86;21012;-67
2023/05/04 11:03:43;;;;;;;6.80;1.62;;;;;;;43.86;10.07;100499.23;1639584;85;20995;-68
2023/05/04 11:06:17;;;;;;;9.18;1.70;;;;;;;42.98;10.27;100492.71;1669364;84;21027;-63
2023/05/04 11:08:51;;;;;;;9.15;1.52;;;;;;;42.40;10.05;100492.66;1660048;84;20964;-63
2023/05/04 11:11:15;;;;;;;5.45;1.60;;;;;;;41.88;10.03;100501.57;1678828;83;21015;-63
2023/05/04 11:13:46;;;;;;;6.72;2.20;;;;;;;40.91;10.01;100503.22;1699041;83;21069;-68
2023/05/04 11:16:16;;;;;;;7.78;2.12;;;;;;;39.85;10.31;100505.95;1697898;83;21007;-66
2023/05/04 11:18:43;;;;;;;5.47;2.05;;;;;;;37.07;9.88;100496.42;1699752;83;21034;-62
2023/05/04 11:21:09;;;;;;;9.15;2.40;;;;;;;34.35;10.83;100505.61;1695129;82;21422;-68
2023/05/04 11:23:37;;;;;;;15.98;2.52;;;;;;;33.59;11.12;100511.34;1698763;82;21085;-65
2023/05/04 11:26:11;;;;;;;7.75;2.17;;;;;;;29.64;11.44;100492.70;1686131;82;21022;-65
2023/05/04 11:28:38;;;;;;;5.47;2.02;;;;;;;29.64;11.44;100492.70;1694514;82;21057;-64
2023/05/04 11:31:13;;;;;;;10.43;2.70;;;;;;;26.32;11.77;100526.27;1701989;83;21053;-65